Marshfield, WI

5:12 AM CST on February 01, 2015 (GMT -0600)
Central Wisconsin | Change Station
CLOSE
Current Station
Airport
Location: Mosinee,
Elevation: 1276 ft
Nearby Weather Stations
Active Advisory: Special Statement

Elev 1276 ft 44.78 °N, 89.67 °W | Updated 37 minutes ago

Snow
Snow
10 °F
Feels Like -7 °F
N
17
Wind Variable Wind from ENE

Today
High -- | Low -- °F
--% Chance of Precip.
Yesterday
High -- | Low -- °F
Precip. -- in
7:19 AM 5:09 PM
Waxing Gibbous, 94% visible
Pressure 30.21 in
Visibility 4.0 miles
Clouds Overcast 2500 ft
Windchill -7 °F
Dew Point 7 °F
Humidity 85%
Rainfall 0.00 in
Snow Depth Not available.
UV 0 out of 12
Pollen .10 out of 12
Air Quality Not available.
Flu Activity Not available.
METAR KCWA 011035Z AUTO 06015KT 4SM -SN OVC025 M12/M14 A3021 RMK AO2

More Conditions Fewer Conditions

Pressure 30.21 in
Visibility 4.0 miles
Clouds Overcast 2500 ft
Windchill -7 °F
Dew Point 7 °F
Humidity 85%
Rainfall 0.00 in
Snow Depth Not available.
UV 0 out of 12
Pollen .10 out of 12
Air Quality Not available.
Flu Activity Not available.
METAR KCWA 011035Z AUTO 06015KT 4SM -SN OVC025 M12/M14 A3021 RMK AO2

More Conditions Fewer Conditions

10-Day Weather Forecast

Almanac

Astronomy

Feb. 01, 2015 Rise Set
Actual Time
Civil Twilight
Nautical Twilight
Astronomical Twilight
Moon
Length of Visible Light
Length of Day
Tomorrow will be .
, % of the Moon is Illuminated

Today's Extremes

State Highs State Lows

Community

WunderPhotos

Upload Photos

1,792,345 photos uploaded!

WunderBlogs® & News

Nearby

Air Quality

  Air Quality AQ Index Pollutant
Not available.

Snow Depth

Station Depth Elevation

Earthquake Activity

City Distance Mag. Time & Date
Minimum magnitude displayed is 2.5.

Coastal Water Temperatures

Place Temperature

Nearby Weather Stations